createdAt,value
2022-11-23T00:00:37.093Z,100.00
2022-11-23T00:01:40.059Z,100.00
2022-11-23T00:02:44.089Z,100.00
2022-11-23T00:03:48.808Z,100.00
2022-11-23T00:04:51.439Z,100.00
2022-11-23T00:05:54.110Z,100.00
2022-11-23T00:06:57.065Z,100.00
2022-11-23T00:07:59.999Z,100.00
2022-11-23T00:09:03.438Z,100.00
2022-11-23T00:10:06.449Z,100.00
2022-11-23T00:11:09.507Z,100.00
2022-11-23T00:12:13.081Z,100.00
2022-11-23T00:13:15.694Z,100.00
2022-11-23T00:14:18.349Z,100.00
2022-11-23T00:15:21.039Z,100.00
2022-11-23T00:16:27.907Z,100.00
2022-11-23T00:17:40.192Z,100.00
2022-11-23T00:18:43.150Z,100.00
2022-11-23T00:19:45.802Z,100.00
2022-11-23T00:20:48.512Z,100.00
2022-11-23T00:21:51.162Z,100.00
2022-11-23T00:22:54.139Z,100.00
2022-11-23T00:23:57.482Z,100.00
2022-11-23T00:25:00.233Z,100.00
2022-11-23T00:26:03.349Z,100.00
2022-11-23T00:27:06.006Z,100.00
2022-11-23T00:28:09.041Z,100.00
2022-11-23T00:29:11.723Z,100.00
2022-11-23T00:30:15.409Z,100.00
2022-11-23T00:31:20.132Z,100.00
2022-11-23T00:32:22.786Z,100.00
2022-11-23T00:33:25.724Z,100.00
2022-11-23T00:34:28.869Z,100.00
2022-11-23T00:35:31.955Z,100.00
2022-11-23T00:36:36.626Z,100.00
2022-11-23T00:37:39.992Z,100.00
2022-11-23T00:38:43.972Z,100.00
2022-11-23T00:39:47.209Z,100.00
2022-11-23T00:40:49.978Z,100.00
2022-11-23T00:41:53.533Z,100.00
2022-11-23T00:42:56.501Z,100.00
2022-11-23T00:43:59.539Z,100.00
2022-11-23T00:45:02.250Z,100.00
2022-11-23T00:46:08.587Z,100.00
2022-11-23T00:47:11.368Z,100.00
2022-11-23T00:48:14.054Z,100.00
2022-11-23T00:49:17.189Z,100.00
2022-11-23T00:50:19.860Z,100.00
2022-11-23T00:51:27.930Z,100.00
2022-11-23T00:52:31.770Z,100.00
2022-11-23T00:53:35.148Z,100.00
2022-11-23T00:54:38.011Z,100.00
2022-11-23T00:55:40.709Z,100.00
2022-11-23T00:56:43.776Z,100.00
2022-11-23T00:57:46.424Z,100.00
2022-11-23T00:58:50.923Z,100.00
2022-11-23T00:59:53.852Z,100.00
2022-11-23T01:01:07.266Z,100.00
2022-11-23T01:02:10.334Z,100.00
2022-11-23T01:03:13.667Z,100.00
2022-11-23T01:04:16.537Z,100.00
2022-11-23T01:05:19.429Z,100.00
2022-11-23T01:06:24.826Z,100.00
2022-11-23T01:07:30.635Z,100.00
2022-11-23T01:08:33.520Z,100.00
2022-11-23T01:09:36.191Z,100.00
2022-11-23T01:10:39.240Z,100.00
2022-11-23T01:11:41.888Z,100.00
2022-11-23T01:12:44.539Z,99.88
2022-11-23T01:13:49.015Z,99.60
2022-11-23T01:15:01.567Z,99.72
2022-11-23T01:16:10.246Z,98.08
2022-11-23T01:17:13.300Z,98.27
2022-11-23T01:18:16.146Z,98.78
2022-11-23T01:19:20.816Z,99.10
2022-11-23T01:20:23.827Z,98.78
2022-11-23T01:21:28.902Z,98.78
2022-11-23T01:22:31.607Z,98.97
2022-11-23T01:23:34.352Z,98.59
2022-11-23T01:24:37.107Z,98.48
2022-11-23T01:25:40.369Z,98.37
2022-11-23T01:26:44.372Z,98.45
2022-11-23T01:27:47.010Z,97.92
2022-11-23T01:28:50.449Z,98.10
2022-11-23T01:29:53.081Z,98.09
2022-11-23T01:30:55.691Z,98.46
2022-11-23T01:31:59.689Z,97.89
2022-11-23T01:33:05.007Z,97.27
2022-11-23T01:34:07.971Z,97.26
2022-11-23T01:35:10.635Z,97.31
2022-11-23T01:36:14.362Z,97.35
2022-11-23T01:37:17.790Z,97.36
2022-11-23T01:38:20.578Z,96.79
2022-11-23T01:39:24.023Z,97.30
2022-11-23T01:40:26.636Z,97.45
2022-11-23T01:41:38.016Z,96.96
2022-11-23T01:43:01.011Z,96.72
2022-11-23T01:44:32.994Z,97.04
2022-11-23T01:45:40.995Z,96.47
2022-11-23T01:46:43.659Z,96.61
2022-11-23T01:47:46.817Z,96.93
2022-11-23T01:49:09.597Z,97.15
2022-11-23T01:50:13.025Z,97.27
2022-11-23T01:51:39.509Z,97.48
2022-11-23T01:52:42.304Z,97.68
2022-11-23T01:53:48.570Z,97.92
2022-11-23T01:54:57.082Z,98.46
2022-11-23T01:56:06.120Z,98.03
2022-11-23T01:57:21.478Z,97.79
2022-11-23T01:58:25.786Z,97.88
2022-11-23T01:59:31.714Z,97.48
2022-11-23T02:00:34.471Z,97.07
2022-11-23T02:01:38.096Z,96.78
2022-11-23T02:02:47.819Z,96.66
2022-11-23T02:03:52.009Z,95.92
2022-11-23T02:04:57.178Z,95.15
2022-11-23T02:06:03.101Z,96.19
2022-11-23T02:07:07.141Z,96.51
2022-11-23T02:08:11.650Z,95.21
2022-11-23T02:09:16.625Z,95.30
2022-11-23T02:10:20.208Z,94.91
2022-11-23T02:11:23.081Z,95.53
2022-11-23T02:12:26.299Z,95.34
2022-11-23T02:13:29.407Z,95.44
2022-11-23T02:14:32.103Z,94.66
2022-11-23T02:15:35.959Z,94.69
2022-11-23T02:16:39.453Z,94.35
2022-11-23T02:17:44.381Z,94.68
2022-11-23T02:18:51.198Z,94.94
2022-11-23T02:20:05.507Z,95.12
2022-11-23T02:21:08.207Z,95.00
2022-11-23T02:22:17.991Z,95.39
2022-11-23T02:23:33.597Z,95.67
2022-11-23T02:24:42.581Z,96.09
2022-11-23T02:25:46.158Z,95.79
2022-11-23T02:26:49.636Z,95.01
2022-11-23T02:27:52.594Z,95.09
2022-11-23T02:29:17.278Z,94.23
2022-11-23T02:30:20.469Z,93.99
2022-11-23T02:32:44.218Z,94.13
2022-11-23T02:33:46.885Z,94.16
2022-11-23T02:34:50.329Z,94.21
2022-11-23T02:35:55.810Z,94.03
2022-11-23T02:36:59.261Z,93.78
2022-11-23T02:38:06.791Z,92.47
2022-11-23T02:39:14.000Z,92.60
2022-11-23T02:40:35.399Z,93.01
2022-11-23T02:41:44.429Z,93.31
2022-11-23T02:44:35.407Z,93.02
2022-11-23T02:45:48.532Z,93.42
2022-11-23T02:46:53.391Z,93.84
2022-11-23T02:49:17.216Z,94.09
2022-11-23T02:50:19.857Z,94.64
2022-11-23T02:51:22.868Z,94.89
2022-11-23T02:52:25.708Z,95.28
2022-11-23T02:53:28.272Z,95.12
2022-11-23T02:54:30.947Z,95.35
2022-11-23T02:55:33.670Z,96.02
2022-11-23T02:56:36.730Z,96.40
2022-11-23T02:57:39.708Z,96.88
2022-11-23T02:58:44.339Z,97.29
2022-11-23T02:59:47.169Z,97.52
2022-11-23T03:00:49.854Z,97.79
2022-11-23T03:01:54.720Z,97.86
2022-11-23T03:02:59.100Z,98.14
2022-11-23T03:04:01.722Z,98.33
2022-11-23T03:05:04.724Z,98.60
2022-11-23T03:06:07.418Z,98.80
2022-11-23T03:07:11.828Z,98.96
2022-11-23T03:08:14.648Z,99.29
2022-11-23T03:09:18.571Z,99.73
2022-11-23T03:10:22.054Z,99.58
2022-11-23T03:11:24.997Z,99.95
2022-11-23T03:12:28.160Z,100.00
2022-11-23T03:13:30.817Z,100.00
2022-11-23T03:14:33.945Z,100.00
2022-11-23T03:15:36.673Z,100.00
2022-11-23T03:16:39.543Z,100.00
2022-11-23T03:17:42.922Z,100.00
2022-11-23T03:18:45.808Z,100.00
2022-11-23T03:19:48.953Z,100.00
2022-11-23T03:20:51.659Z,100.00
2022-11-23T03:21:54.357Z,100.00
2022-11-23T03:22:57.318Z,100.00
2022-11-23T03:24:00.146Z,100.00
2022-11-23T03:25:02.959Z,100.00
2022-11-23T03:26:12.528Z,100.00
2022-11-23T03:27:17.141Z,100.00
2022-11-23T03:28:20.439Z,100.00
2022-11-23T03:29:26.616Z,100.00
2022-11-23T03:30:31.041Z,100.00
2022-11-23T03:31:33.967Z,100.00
2022-11-23T03:32:37.313Z,100.00
2022-11-23T03:33:41.450Z,100.00
2022-11-23T03:34:44.154Z,100.00
2022-11-23T03:35:47.551Z,100.00
2022-11-23T03:36:50.671Z,100.00
2022-11-23T03:37:53.404Z,100.00
2022-11-23T03:38:56.896Z,100.00
2022-11-23T03:39:59.932Z,100.00
2022-11-23T03:41:04.533Z,100.00
2022-11-23T03:42:08.300Z,100.00
2022-11-23T03:43:11.219Z,100.00
2022-11-23T03:44:14.555Z,100.00
2022-11-23T03:45:17.169Z,100.00
2022-11-23T03:46:20.132Z,100.00
2022-11-23T03:47:22.930Z,100.00
2022-11-23T03:48:25.855Z,100.00
2022-11-23T03:49:28.992Z,100.00
2022-11-23T03:50:32.418Z,100.00
2022-11-23T03:51:35.227Z,100.00
2022-11-23T03:52:39.438Z,100.00
2022-11-23T03:53:42.215Z,100.00
2022-11-23T03:54:45.288Z,100.00
2022-11-23T03:55:48.064Z,100.00
2022-11-23T03:56:50.826Z,100.00
2022-11-23T03:57:55.247Z,100.00
2022-11-23T03:58:57.998Z,100.00
2022-11-23T04:00:00.977Z,100.00
2022-11-23T04:01:04.081Z,100.00
2022-11-23T04:02:08.214Z,100.00
2022-11-23T04:03:11.823Z,100.00
2022-11-23T04:04:25.298Z,100.00
2022-11-23T04:05:28.435Z,100.00
2022-11-23T04:06:38.779Z,100.00
2022-11-23T04:07:41.907Z,100.00
2022-11-23T04:08:45.515Z,100.00
2022-11-23T04:09:50.933Z,100.00
2022-11-23T04:10:59.629Z,100.00
2022-11-23T04:12:02.571Z,99.71
2022-11-23T04:13:05.624Z,99.49
2022-11-23T04:14:08.302Z,99.50
2022-11-23T04:15:12.125Z,99.64
2022-11-23T04:16:14.952Z,99.37
2022-11-23T04:17:17.989Z,99.13
2022-11-23T04:18:21.147Z,99.47
2022-11-23T04:19:24.427Z,99.55
2022-11-23T04:20:27.865Z,99.79
2022-11-23T04:21:30.948Z,99.72
2022-11-23T04:22:33.925Z,99.34
2022-11-23T04:23:36.854Z,99.43
2022-11-23T04:24:39.696Z,99.22
2022-11-23T04:25:43.143Z,98.83
2022-11-23T04:26:46.563Z,98.49
2022-11-23T04:27:50.355Z,98.93
2022-11-23T04:28:53.420Z,99.34
2022-11-23T04:29:56.695Z,99.12
2022-11-23T04:30:59.483Z,98.87
2022-11-23T04:32:03.007Z,99.33
2022-11-23T04:33:05.681Z,99.33
2022-11-23T04:34:08.737Z,99.67
2022-11-23T04:35:11.899Z,100.00
2022-11-23T04:36:14.707Z,100.00
2022-11-23T04:37:17.593Z,100.00
2022-11-23T04:38:20.413Z,100.00
2022-11-23T04:39:23.888Z,100.00
2022-11-23T04:40:33.561Z,100.00
2022-11-23T04:41:36.375Z,100.00
2022-11-23T04:42:39.379Z,100.00
2022-11-23T04:43:42.110Z,100.00
2022-11-23T04:44:45.974Z,100.00
2022-11-23T04:45:48.626Z,100.00
2022-11-23T04:46:53.271Z,100.00
2022-11-23T04:48:03.499Z,100.00
2022-11-23T04:49:06.342Z,100.00
2022-11-23T04:50:09.515Z,100.00
2022-11-23T04:51:12.327Z,100.00
2022-11-23T04:52:15.151Z,100.00
2022-11-23T04:53:18.048Z,100.00
2022-11-23T04:54:20.981Z,100.00
2022-11-23T04:55:24.249Z,100.00
2022-11-23T04:56:27.416Z,100.00
2022-11-23T04:57:30.227Z,100.00
2022-11-23T04:58:34.553Z,100.00
2022-11-23T04:59:37.619Z,100.00
2022-11-23T05:00:40.841Z,100.00
2022-11-23T05:01:44.199Z,100.00
2022-11-23T05:02:50.354Z,100.00
2022-11-23T05:03:53.596Z,100.00
2022-11-23T05:04:56.801Z,100.00
2022-11-23T05:06:00.739Z,100.00
2022-11-23T05:07:05.192Z,100.00
2022-11-23T05:08:10.037Z,100.00
2022-11-23T05:09:13.526Z,100.00
2022-11-23T05:10:16.472Z,100.00
2022-11-23T05:11:20.875Z,100.00
2022-11-23T05:12:23.913Z,100.00
2022-11-23T05:13:26.733Z,100.00
2022-11-23T05:14:29.447Z,100.00
2022-11-23T05:15:32.194Z,100.00
2022-11-23T05:16:35.633Z,100.00
2022-11-23T05:17:39.606Z,100.00
2022-11-23T05:18:43.449Z,100.00
2022-11-23T05:19:46.282Z,100.00
2022-11-23T05:20:49.438Z,100.00
2022-11-23T05:21:52.504Z,100.00
2022-11-23T05:22:56.413Z,100.00
2022-11-23T05:23:59.362Z,100.00
2022-11-23T05:25:02.592Z,100.00
2022-11-23T05:26:06.084Z,100.00
2022-11-23T05:27:09.074Z,100.00
2022-11-23T05:28:39.499Z,100.00
2022-11-23T05:29:42.740Z,100.00
2022-11-23T05:30:46.419Z,100.00
2022-11-23T05:31:49.298Z,100.00
2022-11-23T05:32:53.006Z,100.00
2022-11-23T05:33:55.802Z,100.00
2022-11-23T05:35:00.861Z,100.00
2022-11-23T05:36:04.110Z,100.00
2022-11-23T05:37:11.061Z,100.00
2022-11-23T05:38:15.760Z,100.00
2022-11-23T05:39:18.635Z,100.00
2022-11-23T05:40:25.222Z,100.00
2022-11-23T05:41:28.536Z,100.00
2022-11-23T05:42:32.757Z,100.00
2022-11-23T05:43:35.927Z,100.00
2022-11-23T05:44:38.783Z,100.00
2022-11-23T05:45:41.768Z,100.00
2022-11-23T05:46:45.106Z,100.00
2022-11-23T05:47:51.991Z,100.00
2022-11-23T05:48:56.081Z,100.00
2022-11-23T05:49:59.618Z,100.00
2022-11-23T05:51:05.456Z,100.00
2022-11-23T05:52:08.676Z,100.00
2022-11-23T05:53:13.802Z,100.00
2022-11-23T05:54:29.640Z,100.00
2022-11-23T05:55:32.813Z,100.00
2022-11-23T05:56:40.194Z,100.00
2022-11-23T05:57:43.890Z,100.00
2022-11-23T05:58:46.655Z,100.00
2022-11-23T05:59:50.050Z,100.00
2022-11-23T06:00:57.671Z,100.00
2022-11-23T06:02:00.953Z,100.00
2022-11-23T06:03:04.422Z,100.00
2022-11-23T06:04:07.443Z,100.00
2022-11-23T06:05:11.174Z,100.00
2022-11-23T06:06:14.113Z,100.00
2022-11-23T06:07:18.386Z,100.00
2022-11-23T06:08:27.040Z,100.00
2022-11-23T06:09:30.895Z,100.00
2022-11-23T06:10:34.953Z,100.00
2022-11-23T06:11:37.754Z,100.00
2022-11-23T06:12:41.002Z,100.00
2022-11-23T06:13:47.791Z,100.00
2022-11-23T06:14:51.016Z,100.00
2022-11-23T06:15:55.501Z,100.00
2022-11-23T06:16:58.794Z,100.00
2022-11-23T06:18:03.258Z,100.00
2022-11-23T06:19:07.375Z,100.00
2022-11-23T06:20:14.768Z,100.00
2022-11-23T06:21:17.972Z,100.00
2022-11-23T06:22:24.556Z,100.00
2022-11-23T06:23:32.729Z,100.00
2022-11-23T06:24:39.060Z,100.00
2022-11-23T06:25:45.877Z,100.00
2022-11-23T06:26:49.306Z,100.00
2022-11-23T06:28:00.836Z,100.00
2022-11-23T06:29:04.075Z,100.00
2022-11-23T06:30:07.440Z,100.00
2022-11-23T06:31:10.740Z,100.00
2022-11-23T06:32:13.441Z,100.00
2022-11-23T06:33:16.097Z,100.00
2022-11-23T06:34:19.265Z,100.00
2022-11-23T06:35:22.651Z,100.00
2022-11-23T06:36:25.525Z,100.00
2022-11-23T06:37:28.508Z,100.00
2022-11-23T06:38:31.491Z,100.00
2022-11-23T06:39:35.104Z,100.00
2022-11-23T06:40:38.277Z,100.00
2022-11-23T06:41:40.957Z,100.00
2022-11-23T06:42:43.627Z,100.00
2022-11-23T06:43:47.538Z,100.00
2022-11-23T06:44:52.397Z,100.00
2022-11-23T06:45:56.786Z,100.00
2022-11-23T06:46:59.626Z,100.00
2022-11-23T06:48:02.773Z,100.00
2022-11-23T06:49:06.309Z,100.00
2022-11-23T06:50:09.820Z,100.00
2022-11-23T06:51:13.267Z,100.00
2022-11-23T06:52:15.933Z,100.00
2022-11-23T06:53:18.934Z,100.00
2022-11-23T06:54:27.061Z,100.00
2022-11-23T06:55:31.074Z,100.00
2022-11-23T06:56:33.646Z,100.00
2022-11-23T06:57:36.499Z,100.00
2022-11-23T06:58:39.150Z,100.00
2022-11-23T06:59:44.732Z,100.00
2022-11-23T07:00:48.658Z,100.00
2022-11-23T07:01:52.724Z,100.00
2022-11-23T07:02:56.895Z,100.00
2022-11-23T07:04:00.924Z,100.00
2022-11-23T07:05:04.968Z,100.00
2022-11-23T07:06:10.313Z,100.00
2022-11-23T07:07:13.055Z,100.00
2022-11-23T07:08:16.665Z,100.00
2022-11-23T07:09:19.462Z,100.00
2022-11-23T07:10:22.462Z,100.00
2022-11-23T07:11:25.798Z,100.00
2022-11-23T07:12:29.951Z,100.00
2022-11-23T07:13:35.211Z,100.00
2022-11-23T07:14:38.623Z,100.00
2022-11-23T07:15:42.174Z,100.00
2022-11-23T07:16:45.233Z,100.00
2022-11-23T07:17:47.958Z,100.00
2022-11-23T07:18:50.571Z,100.00
2022-11-23T07:19:53.365Z,100.00
2022-11-23T07:21:00.077Z,100.00
2022-11-23T07:22:03.186Z,100.00
2022-11-23T07:23:08.677Z,100.00
2022-11-23T07:24:11.475Z,100.00
2022-11-23T07:25:19.172Z,100.00
2022-11-23T07:26:21.824Z,100.00
2022-11-23T07:27:25.281Z,100.00
2022-11-23T07:28:27.985Z,100.00
2022-11-23T07:29:31.393Z,100.00
2022-11-23T07:30:35.729Z,100.00
2022-11-23T07:31:39.854Z,100.00
2022-11-23T07:32:43.402Z,100.00
2022-11-23T07:33:46.995Z,100.00
2022-11-23T07:34:49.632Z,100.00
2022-11-23T07:35:52.441Z,100.00
2022-11-23T07:37:01.696Z,100.00
2022-11-23T07:38:09.265Z,100.00
2022-11-23T07:39:12.048Z,100.00
2022-11-23T07:40:15.126Z,100.00
2022-11-23T07:41:17.853Z,100.00
2022-11-23T07:42:43.203Z,100.00
2022-11-23T07:43:43.978Z,100.00
2022-11-23T07:44:46.594Z,100.00
2022-11-23T07:45:49.296Z,100.00
2022-11-23T07:46:55.209Z,98.68
2022-11-23T07:48:05.899Z,99.48
2022-11-23T07:49:08.887Z,99.54
2022-11-23T07:50:13.508Z,99.49
2022-11-23T07:51:16.740Z,99.62
2022-11-23T07:52:19.598Z,100.00
2022-11-23T07:53:23.502Z,99.31
2022-11-23T07:54:26.619Z,99.18
2022-11-23T07:55:31.113Z,99.08
2022-11-23T07:56:33.804Z,99.09
2022-11-23T07:57:36.492Z,98.82
2022-11-23T07:58:40.890Z,99.81
2022-11-23T07:59:44.103Z,99.26
2022-11-23T08:00:47.126Z,98.79
2022-11-23T08:01:55.619Z,98.67
2022-11-23T08:04:23.948Z,98.87
2022-11-23T08:05:26.925Z,97.57
2022-11-23T08:06:29.553Z,98.11
2022-11-23T08:07:32.782Z,97.71
2022-11-23T08:08:36.659Z,98.03
2022-11-23T08:09:39.411Z,97.09
2022-11-23T08:10:47.143Z,97.52
2022-11-23T08:11:52.602Z,97.62
2022-11-23T08:13:00.103Z,98.00
2022-11-23T08:14:03.130Z,97.95
2022-11-23T08:15:06.721Z,97.71
2022-11-23T08:16:09.687Z,97.16
2022-11-23T08:17:12.630Z,96.86
2022-11-23T08:18:15.556Z,96.53
2022-11-23T08:19:38.728Z,96.96
2022-11-23T08:20:41.290Z,97.24
2022-11-23T08:21:45.863Z,96.92
2022-11-23T08:22:48.620Z,97.38
2022-11-23T08:23:51.532Z,97.80
2022-11-23T08:24:54.187Z,98.24
2022-11-23T08:25:56.840Z,98.01
2022-11-23T08:26:59.455Z,98.46
2022-11-23T08:28:04.498Z,98.45
2022-11-23T08:29:07.402Z,98.34
2022-11-23T08:30:10.583Z,98.97
2022-11-23T08:31:14.925Z,99.00
2022-11-23T08:32:17.514Z,99.46
2022-11-23T08:33:20.126Z,98.88
2022-11-23T08:34:23.019Z,99.13
2022-11-23T08:35:25.630Z,99.09
2022-11-23T08:36:28.203Z,98.96
2022-11-23T08:37:30.817Z,99.26
2022-11-23T08:38:34.008Z,99.58
2022-11-23T08:39:36.979Z,100.00
2022-11-23T08:40:39.658Z,99.28
2022-11-23T08:41:42.351Z,99.04
2022-11-23T08:42:44.976Z,98.53
2022-11-23T08:43:48.327Z,99.60
2022-11-23T08:44:51.211Z,99.58
2022-11-23T08:46:05.651Z,99.26
2022-11-23T08:47:10.671Z,99.67
2022-11-23T08:48:13.417Z,99.38
2022-11-23T08:49:16.018Z,99.22
2022-11-23T08:50:21.314Z,98.70
2022-11-23T08:51:23.949Z,97.54
2022-11-23T08:52:27.400Z,97.17
2022-11-23T08:53:30.359Z,98.12
2022-11-23T08:54:33.367Z,97.81
2022-11-23T08:55:36.673Z,98.05
2022-11-23T08:56:39.349Z,97.74
2022-11-23T08:57:42.147Z,97.90
2022-11-23T08:58:45.172Z,97.44
2022-11-23T08:59:48.145Z,97.58
2022-11-23T09:00:50.991Z,97.28
2022-11-23T09:01:53.689Z,98.33
2022-11-23T09:02:59.976Z,98.50
2022-11-23T09:04:04.714Z,98.56
2022-11-23T09:05:07.789Z,98.45
2022-11-23T09:06:11.560Z,97.21
2022-11-23T09:07:14.287Z,98.48
2022-11-23T09:08:17.728Z,97.90
2022-11-23T09:09:20.492Z,97.38
2022-11-23T09:10:23.190Z,97.06
2022-11-23T09:11:26.498Z,96.70
2022-11-23T09:12:29.148Z,96.40
2022-11-23T09:13:32.667Z,96.81
2022-11-23T09:14:35.612Z,96.88
2022-11-23T09:15:38.268Z,96.49
2022-11-23T09:16:41.328Z,96.10
2022-11-23T09:17:44.990Z,96.19
2022-11-23T09:18:49.562Z,96.57
2022-11-23T09:19:52.266Z,97.22
2022-11-23T09:20:54.868Z,96.67
2022-11-23T09:21:58.160Z,96.68
2022-11-23T09:23:00.738Z,95.54
2022-11-23T09:24:03.482Z,96.41
2022-11-23T09:25:07.259Z,96.06
2022-11-23T09:26:10.662Z,96.04
2022-11-23T09:27:13.560Z,96.96
2022-11-23T09:28:19.715Z,96.00
2022-11-23T09:29:22.695Z,95.92
2022-11-23T09:30:26.467Z,95.74
2022-11-23T09:31:29.188Z,95.73
2022-11-23T09:32:32.685Z,95.88
2022-11-23T09:33:35.274Z,96.24
2022-11-23T09:34:37.900Z,95.81
2022-11-23T09:35:43.918Z,95.67
2022-11-23T09:36:47.593Z,94.99
2022-11-23T09:37:58.547Z,95.34
2022-11-23T09:39:01.213Z,96.06
2022-11-23T09:40:04.674Z,96.05
2022-11-23T09:41:23.300Z,96.45
2022-11-23T09:42:46.836Z,96.08
2022-11-23T09:44:08.681Z,95.51
2022-11-23T09:45:13.997Z,95.57
2022-11-23T09:47:02.094Z,96.05
2022-11-23T09:48:19.534Z,95.31
2022-11-23T09:49:27.915Z,95.05
2022-11-23T09:50:49.558Z,94.45
2022-11-23T09:51:55.687Z,94.74
2022-11-23T09:53:07.414Z,94.26
2022-11-23T09:54:30.987Z,94.52
2022-11-23T09:55:46.833Z,93.29
2022-11-23T09:56:51.400Z,92.25
2022-11-23T09:58:01.535Z,92.08
2022-11-23T09:59:13.030Z,91.91
2022-11-23T10:00:23.464Z,91.18
2022-11-23T10:01:30.884Z,91.53
2022-11-23T10:02:39.827Z,90.67
2022-11-23T10:03:48.786Z,92.57
2022-11-23T10:04:53.880Z,91.82
2022-11-23T10:06:25.711Z,91.99
2022-11-23T10:08:04.099Z,92.82
2022-11-23T10:09:49.857Z,92.85
2022-11-23T10:11:06.828Z,91.94
2022-11-23T10:12:23.155Z,90.53
2022-11-23T10:13:40.073Z,90.60
2022-11-23T10:14:52.131Z,91.91
2022-11-23T10:15:57.787Z,91.21
2022-11-23T10:17:41.327Z,90.18
2022-11-23T10:18:50.737Z,90.20
2022-11-23T10:20:19.289Z,89.88
2022-11-23T10:23:08.031Z,90.04
2022-11-23T10:24:14.098Z,90.56
2022-11-23T10:25:19.808Z,89.78
2022-11-23T10:26:34.488Z,89.91
2022-11-23T10:27:37.317Z,89.27
2022-11-23T10:28:40.229Z,89.43
2022-11-23T10:29:43.988Z,89.27
2022-11-23T10:30:57.376Z,90.67
2022-11-23T10:32:05.256Z,90.48
2022-11-23T10:33:41.879Z,90.83
2022-11-23T10:35:12.693Z,89.87
2022-11-23T10:36:16.506Z,89.81
2022-11-23T10:37:19.326Z,89.59
2022-11-23T10:38:26.966Z,90.84
2022-11-23T10:39:31.870Z,90.57
2022-11-23T10:40:38.784Z,89.76
2022-11-23T10:41:41.604Z,89.99
2022-11-23T10:42:50.336Z,89.18
2022-11-23T10:44:32.152Z,89.43
2022-11-23T10:45:35.694Z,90.08
2022-11-23T10:46:40.638Z,90.34
2022-11-23T10:47:51.437Z,90.38
2022-11-23T10:48:54.991Z,91.21
2022-11-23T10:49:58.927Z,90.57
2022-11-23T10:51:35.340Z,90.06
2022-11-23T10:52:37.998Z,91.72
2022-11-23T10:53:41.037Z,90.93
2022-11-23T10:54:52.587Z,90.87
2022-11-23T10:56:00.195Z,89.85
2022-11-23T10:57:40.795Z,89.62
2022-11-23T10:58:45.961Z,90.08
2022-11-23T11:00:04.907Z,91.63
2022-11-23T11:01:17.065Z,91.29
2022-11-23T11:02:21.809Z,91.00
2022-11-23T11:03:24.907Z,91.14
2022-11-23T11:04:31.442Z,90.35
2022-11-23T11:06:07.486Z,89.96
2022-11-23T11:07:24.274Z,89.87
2022-11-23T11:08:49.454Z,89.56
2022-11-23T11:10:00.651Z,89.87
2022-11-23T11:11:21.265Z,89.98
2022-11-23T11:12:24.155Z,89.83
2022-11-23T11:13:40.237Z,89.25
2022-11-23T11:15:10.730Z,89.85
2022-11-23T11:16:19.405Z,89.29
2022-11-23T11:17:28.070Z,89.64
2022-11-23T11:18:36.185Z,89.23
2022-11-23T11:19:39.644Z,88.35
2022-11-23T11:20:45.570Z,87.50
2022-11-23T11:21:48.517Z,88.31
2022-11-23T11:22:51.340Z,88.68
2022-11-23T11:24:05.737Z,88.06
2022-11-23T11:25:31.862Z,88.63
2022-11-23T11:26:36.160Z,89.85
2022-11-23T11:27:38.780Z,89.31
2022-11-23T11:28:43.272Z,89.10
2022-11-23T11:29:51.469Z,89.11
2022-11-23T11:31:30.313Z,88.61
2022-11-23T11:32:45.139Z,89.03
2022-11-23T11:33:53.850Z,88.11
2022-11-23T11:35:10.235Z,87.43
2022-11-23T11:36:16.375Z,87.09
2022-11-23T11:37:35.097Z,87.26
2022-11-23T11:38:39.963Z,87.49
2022-11-23T11:39:52.413Z,86.97
2022-11-23T11:41:00.211Z,87.53
2022-11-23T11:42:07.300Z,87.35
2022-11-23T11:43:36.331Z,87.27
2022-11-23T11:44:46.346Z,85.67
2022-11-23T11:46:27.936Z,85.05
2022-11-23T11:47:23.528Z,85.74
2022-11-23T11:48:34.168Z,84.72
2022-11-23T11:49:46.866Z,83.53
2022-11-23T11:51:12.454Z,84.39
2022-11-23T11:52:25.328Z,84.97
2022-11-23T11:53:33.531Z,85.36
2022-11-23T11:54:52.065Z,83.84
2022-11-23T11:56:03.016Z,83.60
2022-11-23T11:57:15.779Z,84.24
2022-11-23T11:58:22.654Z,83.00
2022-11-23T11:59:43.023Z,84.55
2022-11-23T12:00:48.954Z,83.23
2022-11-23T12:02:01.197Z,82.79
2022-11-23T12:03:18.128Z,83.00
2022-11-23T12:04:43.034Z,81.60
2022-11-23T12:05:51.839Z,80.26
2022-11-23T12:07:16.340Z,80.46
2022-11-23T12:08:46.251Z,81.11
2022-11-23T12:09:55.958Z,81.74
2022-11-23T12:11:02.208Z,80.12
2022-11-23T12:12:12.095Z,81.49
2022-11-23T12:13:20.189Z,81.69
2022-11-23T12:14:22.893Z,80.80
2022-11-23T12:15:49.599Z,81.41
2022-11-23T12:18:42.656Z,81.34
2022-11-23T12:20:22.810Z,79.38
2022-11-23T12:21:59.554Z,77.61
2022-11-23T12:23:23.717Z,78.99
2022-11-23T12:25:11.745Z,79.36
2022-11-23T12:26:36.401Z,78.85
2022-11-23T12:28:01.143Z,78.54
2022-11-23T12:29:16.016Z,77.65
2022-11-23T12:30:28.011Z,77.76
2022-11-23T12:31:43.689Z,77.67
2022-11-23T12:33:05.153Z,78.42
2022-11-23T12:34:29.699Z,79.04
2022-11-23T12:35:48.393Z,79.32
2022-11-23T12:37:12.248Z,79.81
2022-11-23T12:38:38.915Z,79.75
2022-11-23T12:40:07.171Z,80.79
2022-11-23T12:41:28.887Z,79.02
2022-11-23T12:42:44.861Z,80.17
2022-11-23T12:44:13.221Z,79.73
2022-11-23T12:45:27.641Z,80.45
2022-11-23T12:46:51.435Z,79.24
2022-11-23T12:48:00.042Z,79.88
2022-11-23T12:49:14.029Z,80.83
2022-11-23T12:50:32.021Z,77.42
2022-11-23T12:51:35.089Z,79.62
2022-11-23T12:52:59.169Z,79.41
2022-11-23T12:54:41.403Z,78.73
2022-11-23T12:55:58.362Z,78.86
2022-11-23T12:57:11.337Z,77.50
2022-11-23T12:58:29.723Z,78.23
2022-11-23T12:59:55.307Z,78.81
2022-11-23T13:01:29.347Z,78.58
2022-11-23T13:02:51.589Z,78.29
2022-11-23T13:04:25.267Z,78.01
2022-11-23T13:05:51.047Z,77.74
2022-11-23T13:07:32.795Z,78.50
2022-11-23T13:09:02.564Z,78.69
2022-11-23T13:10:33.134Z,78.09
2022-11-23T13:11:35.687Z,79.44
2022-11-23T13:12:56.491Z,78.83
2022-11-23T13:14:08.108Z,78.74
2022-11-23T13:15:36.139Z,79.57
2022-11-23T13:16:54.814Z,79.76
2022-11-23T13:18:06.519Z,79.21
2022-11-23T13:19:34.882Z,79.87
2022-11-23T13:21:05.380Z,80.83
2022-11-23T13:22:16.246Z,82.00
2022-11-23T13:23:21.845Z,81.92
2022-11-23T13:24:30.871Z,80.94
2022-11-23T13:25:33.881Z,80.45
2022-11-23T13:26:36.735Z,81.40
2022-11-23T13:27:49.867Z,81.61
2022-11-23T13:28:54.332Z,81.29
2022-11-23T13:30:00.336Z,82.10
2022-11-23T13:31:16.030Z,81.72
2022-11-23T13:32:46.304Z,81.78
2022-11-23T13:33:51.148Z,81.25
2022-11-23T13:34:53.817Z,80.23
2022-11-23T13:36:05.175Z,78.40
2022-11-23T13:37:13.880Z,77.43
2022-11-23T13:38:16.776Z,75.90
2022-11-23T13:39:44.069Z,75.05
2022-11-23T13:40:46.791Z,73.02
2022-11-23T13:42:01.696Z,72.10
2022-11-23T13:43:27.109Z,72.24
2022-11-23T13:44:32.857Z,72.22
2022-11-23T13:45:39.347Z,72.30
2022-11-23T13:46:42.137Z,72.13
2022-11-23T13:48:34.400Z,72.51
2022-11-23T13:49:46.350Z,73.23
2022-11-23T13:50:48.974Z,73.31
2022-11-23T13:52:23.706Z,74.55
2022-11-23T13:53:36.006Z,74.92
2022-11-23T13:54:40.217Z,75.05
2022-11-23T13:55:43.153Z,75.34
2022-11-23T13:56:46.401Z,76.45
2022-11-23T13:58:22.960Z,77.29
2022-11-23T13:59:28.209Z,77.18
2022-11-23T14:00:49.254Z,78.33
2022-11-23T14:02:07.412Z,78.26
2022-11-23T14:03:48.676Z,78.98
2022-11-23T14:04:51.484Z,79.25
2022-11-23T14:05:59.447Z,79.29
2022-11-23T14:07:17.506Z,79.54
2022-11-23T14:08:20.967Z,79.71
2022-11-23T14:09:43.652Z,80.06
2022-11-23T14:10:47.880Z,80.56
2022-11-23T14:12:12.589Z,80.96
2022-11-23T14:13:25.476Z,81.15
2022-11-23T14:15:01.066Z,81.58
2022-11-23T14:16:05.911Z,81.74
2022-11-23T14:17:27.000Z,82.18
2022-11-23T14:18:45.147Z,81.74
2022-11-23T14:20:12.413Z,82.81
2022-11-23T14:21:19.370Z,82.64
2022-11-23T14:22:36.108Z,83.44
2022-11-23T14:23:56.813Z,83.32
2022-11-23T14:25:26.629Z,83.87
2022-11-23T14:26:41.517Z,84.17
2022-11-23T14:27:55.878Z,84.35
2022-11-23T14:29:29.952Z,84.89
2022-11-23T14:30:44.615Z,85.13